KFYG

Washington Regional Airport

Washington, Missouri, USA
METAR KFYG 230215Z AUTO 00000KT 10SM 22/18 A3003 RMK AO2
Observed Flight Rules
May-23 @ 02:15 UTC (53 minutes ago)
Visibility
10 miles
Temperatures Readings
Current 22°C / 72°F
Dewpoint 18°C / 64°F
Humidity 78%
Altimeter 30.03" Hg
Pressure 1017 hPa
Elevation 149
METAR KFYG 230215Z AUTO 00000KT 10SM 22/18 A3003 RMK AO2
Observed Flight Rules
May-23 @ 02:15 UTC
(53 minutes ago)
Temperature Dewpoint
22°C / 72°F 18°C / 64°F
Humidity Altimeter Pressure
78% 30.03" Hg 1017 hPa